Meteorología y climatología de Navarra
Datos de la estación - Meteo Navarra

Estación de Eltzaburu GN

Altitud 588 m.


Datos desde el 07/12/2018 hasta el 08/12/2018 en horario solar
Los datos son PROVISIONALES

Anterior Página 1 de 1 Siguiente Descargar: Formato para Excel 2000 o superior   Formato csv   Formato para OpenOffice Calc
Fecha Temperatura Humedad relativa Radiación global Insolación Precipitación Velocidad viento 10 m Velocidad viento 10 m Dirección viento 10 m
ºC % W/m² s l/m² m/s km/h º
07/12/2018 0:00 4.5 100 0.0 0 0.0 1.3 4.7 333
07/12/2018 0:10 4.5 100 0.0 0 0.0 1.4 5.1 322
07/12/2018 0:20 4.3 100 0.0 0 0.0 1.4 5.0 328
07/12/2018 0:30 3.9 100 0.0 0 0.0 1.4 5.0 316
07/12/2018 0:40 3.5 100 0.0 0 0.0 1.1 3.8 311
07/12/2018 0:50 3.8 100 0.0 0 0.0 1.5 5.4 328
07/12/2018 1:00 3.1 100 0.0 0 0.0 0.5 1.9 299
07/12/2018 1:10 3.1 100 0.0 0 0.0 0.7 2.6 312
07/12/2018 1:20 3.3 100 0.0 0 0.0 0.7 2.7 324
07/12/2018 1:30 3.8 100 0.0 0 0.0 0.8 2.8 324
07/12/2018 1:40 3.6 100 0.0 0 0.0 0.6 2.3 249
07/12/2018 1:50 2.9 100 0.0 0 0.0 0.5 1.8 311
07/12/2018 2:00 2.7 100 0.0 0 0.0 0.2 0.6 313
07/12/2018 2:10 2.4 100 0.0 0 0.0 0.3 0.9 167
07/12/2018 2:20 2.2 100 0.0 0 0.0 0.1 0.4 157
07/12/2018 2:30 2.4 100 0.0 0 0.0 0.4 1.5 178
07/12/2018 2:40 1.7 100 0.0 0 0.0 0.0 0.0 203
07/12/2018 2:50 1.6 100 0.0 0 0.0 0.0 0.0 0
07/12/2018 3:00 1.6 100 0.0 0 0.0 0.0 0.0 0
07/12/2018 3:10 1.4 100 0.0 0 0.0 0.0 0.1 129
07/12/2018 3:20 1.4 100 0.0 0 0.0 0.5 1.9 93
07/12/2018 3:30 1.6 100 0.0 0 0.0 0.3 1.0 164
07/12/2018 3:40 1.0 100 0.0 0 0.0 0.1 0.2 296
07/12/2018 3:50 1.0 100 0.0 0 0.0 0.0 0.1 165
07/12/2018 4:00 1.1 100 0.0 0 0.0 0.1 0.3 104
07/12/2018 4:10 1.1 100 0.0 0 0.0 0.0 0.0 100
07/12/2018 4:20 1.1 100 0.0 0 0.0 0.3 1.1 7
07/12/2018 4:30 1.2 100 0.0 0 0.0 0.5 1.7 4
07/12/2018 4:40 1.3 100 0.0 0 0.0 0.4 1.6 42
07/12/2018 4:50 1.3 100 0.0 0 0.0 0.5 1.7 96
07/12/2018 5:00 1.4 100 0.0 0 0.0 0.1 0.4 90
07/12/2018 5:10 1.4 100 0.0 0 0.0 0.1 0.4 95
07/12/2018 5:20 1.0 100 0.0 0 0.0 0.3 1.2 317
07/12/2018 5:30 0.8 100 0.0 0 0.0 0.5 1.8 349
07/12/2018 5:40 0.8 100 0.0 0 0.0 0.1 0.5 326
07/12/2018 5:50 0.9 100 0.0 0 0.0 0.1 0.4 321
07/12/2018 6:00 1.0 100 0.0 0 0.0 0.3 1.2 33
07/12/2018 6:10 1.0 100 0.0 0 0.0 0.1 0.5 214
07/12/2018 6:20 0.9 100 0.0 0 0.0 0.3 1.2 163
07/12/2018 6:30 0.9 100 0.0 0 0.0 0.3 1.0 137
07/12/2018 6:40 0.8 100 0.0 0 0.0 0.2 0.6 205
07/12/2018 6:50 0.5 100 0.0 0 0.0 0.6 2.2 348
07/12/2018 7:00 0.3 100 0.0 0 0.0 0.4 1.5 46
07/12/2018 7:10 0.3 100 0.0 0 0.0 0.1 0.5 118
07/12/2018 7:20 0.1 100 0.0 0 0.0 0.5 1.7 3
07/12/2018 7:30 -0.1 100 0.0 0 0.1 0.5 1.9 32
07/12/2018 7:40 -0.1 100 0.0 0 0.0 0.6 2.0 2
07/12/2018 7:50 -0.4 100 5.2 0 0.0 0.8 2.7 354
07/12/2018 8:00 -0.5 100 21.0 0 0.0 0.4 1.4 47
07/12/2018 8:10 -0.3 100 32.2 0 0.0 0.3 1.2 80
07/12/2018 8:20 -0.1 100 40.3 0 0.0 0.2 0.9 9
07/12/2018 8:30 0.1 100 56.3 0 0.0 0.1 0.2 96
07/12/2018 8:40 0.4 100 64.6 0 0.0 0.2 0.6 286
07/12/2018 8:50 0.5 100 74.8 0 0.0 0.1 0.5 200
07/12/2018 9:00 0.6 100 93.4 50 0.0 0.2 0.6 126
07/12/2018 9:10 1.0 100 109.6 0 0.0 0.5 1.6 155
07/12/2018 9:20 1.3 100 124.7 88 0.0 0.6 2.2 140
07/12/2018 9:30 1.4 100 147.8 352 0.0 0.8 3.0 161
07/12/2018 9:40 1.5 100 176.4 600 0.0 0.5 1.6 197
07/12/2018 9:50 1.7 100 165.8 348 0.0 0.4 1.5 216
07/12/2018 10:00 1.8 100 183.1 596 0.0 0.4 1.4 212
07/12/2018 10:10 2.1 100 204.6 600 0.0 0.6 2.2 205
07/12/2018 10:20 2.5 100 237.2 600 0.0 0.8 2.9 201
07/12/2018 10:30 3.4 100 253.4 600 0.0 0.8 2.8 159
07/12/2018 10:40 3.3 100 263.2 600 0.0 1.0 3.5 206
07/12/2018 10:50 3.5 100 291.4 600 0.0 1.1 3.8 198
07/12/2018 11:00 4.5 100 384.0 600 0.0 0.8 2.8 169
07/12/2018 11:10 4.7 100 402.9 600 0.0 1.1 3.8 198
07/12/2018 11:20 5.5 100 418.8 600 0.0 1.4 4.9 173
07/12/2018 11:30 5.8 100 405.5 600 0.0 1.1 3.8 149
07/12/2018 11:40 6.6 99 407.7 600 0.0 0.8 2.9 159
07/12/2018 11:50 7.4 92 423.4 600 0.0 1.2 4.4 172
07/12/2018 12:00 8.2 87 420.8 600 0.0 1.2 4.4 180
07/12/2018 12:10 8.5 85 420.1 600 0.0 1.3 4.8 167
07/12/2018 12:20 9.5 79 418.3 600 0.0 0.9 3.2 153
07/12/2018 12:30 9.6 75 414.7 600 0.0 1.7 6.2 171
07/12/2018 12:40 9.6 77 377.7 532 0.0 1.6 5.7 192
07/12/2018 12:50 9.5 77 297.1 466 0.0 1.2 4.5 192
07/12/2018 13:00 9.5 77 241.0 250 0.0 1.1 3.8 187
07/12/2018 13:10 9.5 78 191.9 84 0.0 1.0 3.5 175
07/12/2018 13:20 9.8 77 144.6 0 0.0 0.4 1.5 86
07/12/2018 13:30 10.0 75 121.7 0 0.0 0.6 2.3 177
07/12/2018 13:40 10.1 76 109.0 0 0.0 0.9 3.2 171
07/12/2018 13:50 10.2 76 175.7 232 0.0 0.6 2.3 163
07/12/2018 14:00 10.7 74 124.7 0 0.0 0.6 2.3 170
07/12/2018 14:10 10.5 74 190.0 416 0.0 0.8 2.7 184
07/12/2018 14:20 10.7 71 125.2 76 0.0 0.9 3.2 204
07/12/2018 14:30 10.5 73 73.2 0 0.0 1.0 3.4 209
07/12/2018 14:40 10.3 75 67.9 0 0.0 0.7 2.4 178
07/12/2018 14:50 10.3 74 49.6 0 0.0 0.3 0.9 207
07/12/2018 15:00 10.3 73 32.1 0 0.0 0.5 1.9 147
07/12/2018 15:10 10.3 75 36.8 0 0.0 0.7 2.4 164
07/12/2018 15:20 10.2 76 27.4 0 0.0 0.7 2.4 74
07/12/2018 15:30 10.2 78 24.1 0 0.0 0.5 1.7 63
07/12/2018 15:40 9.9 82 21.7 0 0.0 0.6 2.2 82
07/12/2018 15:50 9.7 87 8.5 0 0.0 0.6 2.3 249
07/12/2018 16:00 9.3 88 0.0 0 0.0 1.1 3.9 194
07/12/2018 16:10 9.2 90 0.0 0 0.0 0.4 1.4 42
07/12/2018 16:20 9.1 92 0.0 0 0.0 0.4 1.5 13
07/12/2018 16:30 9.0 92 0.0 0 0.0 0.3 0.9 48
07/12/2018 16:40 9.1 94 0.0 0 0.1 0.4 1.4 88
07/12/2018 16:50 8.9 96 0.0 0 0.0 1.0 3.7 94
07/12/2018 17:00 8.8 98 0.0 0 0.1 1.1 3.9 86
07/12/2018 17:10 9.0 98 0.0 0 0.1 1.6 5.7 35
07/12/2018 17:20 9.8 96 0.0 0 0.0 2.7 9.6 337
07/12/2018 17:30 9.8 96 0.0 0 0.1 1.9 6.8 322
07/12/2018 17:40 9.7 95 0.0 0 0.0 1.8 6.3 325
07/12/2018 17:50 9.7 95 0.0 0 0.1 1.4 5.0 309
07/12/2018 18:00 9.6 97 0.0 0 0.1 0.6 2.1 246
07/12/2018 18:10 9.3 98 0.0 0 0.0 0.3 1.1 357
07/12/2018 18:20 9.3 99 0.0 0 0.1 1.6 5.8 342
07/12/2018 18:30 9.4 97 0.0 0 0.1 2.1 7.6 320
07/12/2018 18:40 9.5 97 0.0 0 0.1 1.8 6.4 345
07/12/2018 18:50 9.4 96 0.0 0 0.0 2.4 8.6 345
07/12/2018 19:00 9.4 94 0.0 0 0.1 2.9 10.3 340
07/12/2018 19:10 9.1 93 0.0 0 0.1 4.2 14.9 332
07/12/2018 19:20 9.1 91 0.0 0 0.0 4.9 17.6 320
07/12/2018 19:30 9.0 92 0.0 0 0.1 4.4 15.7 322
07/12/2018 19:40 8.8 93 0.0 0 0.1 3.7 13.2 323
07/12/2018 19:50 8.7 93 0.0 0 0.0 3.1 11.2 328
07/12/2018 20:00 8.6 94 0.0 0 0.2 2.3 8.1 1
07/12/2018 20:10 8.2 93 0.0 0 0.1 3.2 11.6 350
07/12/2018 20:20 8.1 92 0.0 0 0.1 4.8 17.2 354
07/12/2018 20:30 8.0 90 0.0 0 0.0 5.0 18.0 353
07/12/2018 20:40 7.7 90 0.0 0 0.1 4.8 17.1 354
07/12/2018 20:50 7.5 90 0.0 0 0.0 3.3 11.8 349
07/12/2018 21:00 7.4 91 0.0 0 0.0 3.3 12.0 352
07/12/2018 21:10 7.5 89 0.0 0 0.1 4.6 16.7 1
07/12/2018 21:20 7.5 86 0.0 0 0.0 3.3 11.8 350
07/12/2018 21:30 7.3 89 0.0 0 0.0 4.0 14.5 340
07/12/2018 21:40 7.3 89 0.0 0 0.0 3.9 13.9 339
07/12/2018 21:50 7.2 90 0.0 0 0.0 3.1 11.1 344
07/12/2018 22:00 7.0 92 0.0 0 0.2 3.1 11.1 336
07/12/2018 22:10 6.9 94 0.0 0 0.0 2.3 8.2 330
07/12/2018 22:20 6.9 93 0.0 0 0.0 2.1 7.4 328
07/12/2018 22:30 7.0 92 0.0 0 0.0 2.3 8.4 326
07/12/2018 22:40 6.9 91 0.0 0 0.0 1.8 6.6 334
07/12/2018 22:50 7.0 91 0.0 0 0.0 1.5 5.5 353
07/12/2018 23:00 7.1 90 0.0 0 0.0 1.4 5.0 330
07/12/2018 23:10 6.9 92 0.0 0 0.0 1.3 4.8 330
07/12/2018 23:20 6.9 92 0.0 0 0.0 1.2 4.4 336
07/12/2018 23:30 7.0 91 0.0 0 0.0 1.9 6.9 334
07/12/2018 23:40 7.2 89 0.0 0 0.0 2.0 7.0 313
07/12/2018 23:50 7.8 84 0.0 0 0.0 2.7 9.5 309
Anterior Página 1 de 1 Siguiente

NOTA: Tipo de datos según el color:
   - Valores diarios o 10 minutos correctos
   - Valores diarios calculados a partir de un número de datos 10 minutos menor que 144 y mayor que 120, o de un número de datos semihorarios menor que 48 y mayor que 40 (caso de las estaciones de Riegos de Navarra y del MARM)
   - Valores diez minutos estimados


Contacto        Enlaces        Aviso legal